createdAt,value
2019-05-13T00:00:25.752Z,5.00
2019-05-13T00:02:55.558Z,5.10
2019-05-13T00:05:25.261Z,4.65
2019-05-13T00:07:55.066Z,5.53
2019-05-13T00:10:24.840Z,5.30
2019-05-13T00:12:55.781Z,5.50
2019-05-13T00:15:25.568Z,5.00
2019-05-13T00:17:56.713Z,5.58
2019-05-13T00:20:26.519Z,5.30
2019-05-13T00:22:57.831Z,6.53
2019-05-13T00:25:27.465Z,5.15
2019-05-13T00:27:57.129Z,6.08
2019-05-13T00:30:26.875Z,5.62
2019-05-13T00:32:56.611Z,5.90
2019-05-13T00:35:26.546Z,5.62
2019-05-13T00:37:56.212Z,6.25
2019-05-13T00:40:26.769Z,5.60
2019-05-13T00:42:56.647Z,5.75
2019-05-13T00:45:26.574Z,5.95
2019-05-13T00:47:56.531Z,6.00
2019-05-13T00:50:26.312Z,5.72
2019-05-13T00:52:57.130Z,6.08
2019-05-13T00:55:26.846Z,6.12
2019-05-13T00:57:56.638Z,6.58
2019-05-13T01:00:26.506Z,6.70
2019-05-13T01:02:57.210Z,6.37
2019-05-13T01:05:27.055Z,6.72
2019-05-13T01:07:56.826Z,6.55
2019-05-13T01:10:26.620Z,6.80
2019-05-13T01:13:06.840Z,5.97
2019-05-13T01:15:36.569Z,6.20
2019-05-13T01:18:06.300Z,6.62
2019-05-13T01:20:36.081Z,6.90
2019-05-13T01:23:06.802Z,6.45
2019-05-13T01:25:36.774Z,6.55
2019-05-13T01:28:06.601Z,6.40
2019-05-13T01:30:36.379Z,7.08
2019-05-13T01:33:07.022Z,7.33
2019-05-13T01:35:36.742Z,6.85
2019-05-13T01:38:06.536Z,6.83
2019-05-13T01:40:36.430Z,6.87
2019-05-13T01:43:06.194Z,7.08
2019-05-13T01:45:35.915Z,8.03
2019-05-13T01:48:07.754Z,7.50
2019-05-13T01:50:37.285Z,6.50
2019-05-13T01:53:07.520Z,6.72
2019-05-13T01:55:37.249Z,6.80
2019-05-13T01:58:07.061Z,7.22
2019-05-13T02:00:38.481Z,7.15
2019-05-13T02:03:08.275Z,8.35
2019-05-13T02:05:37.989Z,8.25
2019-05-13T02:08:08.703Z,8.75
2019-05-13T02:10:54.388Z,8.45
2019-05-13T02:13:24.831Z,7.60
2019-05-13T02:15:56.129Z,8.43
2019-05-13T02:18:25.913Z,8.65
2019-05-13T02:20:56.188Z,8.88
2019-05-13T02:23:26.982Z,8.10
2019-05-13T02:25:56.790Z,8.75
2019-05-13T02:28:26.504Z,7.95
2019-05-13T02:30:57.089Z,8.78
2019-05-13T02:33:27.013Z,7.90
2019-05-13T02:35:56.873Z,8.18
2019-05-13T02:38:30.735Z,8.88
2019-05-13T02:40:58.024Z,8.98
2019-05-13T02:43:27.745Z,9.13
2019-05-13T02:46:03.731Z,7.78
2019-05-13T02:48:33.159Z,8.33
2019-05-13T02:51:05.461Z,8.70
2019-05-13T02:53:35.366Z,9.18
2019-05-13T02:56:08.405Z,8.75
2019-05-13T02:58:42.772Z,10.20
2019-05-13T03:01:13.834Z,9.13
2019-05-13T03:03:44.550Z,9.45
2019-05-13T03:06:14.527Z,9.05
2019-05-13T03:08:49.596Z,9.90
2019-05-13T03:11:16.611Z,9.60
2019-05-13T03:13:52.578Z,10.43
2019-05-13T03:16:25.157Z,10.15
2019-05-13T03:18:56.740Z,8.75
2019-05-13T03:21:27.362Z,10.90
2019-05-13T03:23:57.267Z,10.38
2019-05-13T03:26:27.140Z,10.10
2019-05-13T03:28:57.017Z,9.95
2019-05-13T03:31:27.222Z,9.13
2019-05-13T03:33:57.069Z,10.75
2019-05-13T03:36:27.259Z,9.90
2019-05-13T03:39:05.742Z,11.25
2019-05-13T03:41:32.944Z,10.30
2019-05-13T03:44:08.378Z,10.53
2019-05-13T03:46:42.560Z,10.45
2019-05-13T03:49:14.179Z,9.53
2019-05-13T03:51:44.157Z,9.83
2019-05-13T03:54:14.535Z,10.68
2019-05-13T03:56:44.250Z,10.13
2019-05-13T03:59:14.120Z,10.43
2019-05-13T04:01:44.375Z,9.53
2019-05-13T04:04:15.074Z,10.03
2019-05-13T04:06:44.935Z,10.32
2019-05-13T04:09:26.216Z,10.58
2019-05-13T04:11:46.393Z,10.82
2019-05-13T04:18:03.131Z,9.33
2019-05-13T04:20:33.832Z,9.95
2019-05-13T04:23:04.964Z,11.03
2019-05-13T04:25:39.379Z,9.58
2019-05-13T04:28:06.725Z,10.88
2019-05-13T04:30:36.493Z,11.40
2019-05-13T04:33:12.959Z,10.58
2019-05-13T04:35:42.699Z,10.95
2019-05-13T04:38:13.314Z,11.05
2019-05-13T04:40:44.080Z,10.98
2019-05-13T04:43:14.984Z,11.08
2019-05-13T04:45:44.849Z,12.20
2019-05-13T04:48:15.961Z,12.05
2019-05-13T04:50:45.744Z,11.83
2019-05-13T04:53:16.619Z,12.15
2019-05-13T04:55:46.560Z,11.53
2019-05-13T04:58:16.499Z,10.85
2019-05-13T05:01:02.118Z,11.05
2019-05-13T05:03:44.762Z,10.95
2019-05-13T05:06:33.398Z,10.88
2019-05-13T05:09:07.738Z,11.43
2019-05-13T05:12:24.039Z,11.38
2019-05-13T05:15:03.902Z,11.12
2019-05-13T05:17:53.089Z,11.25
2019-05-13T05:20:36.237Z,11.22
2019-05-13T05:23:54.596Z,10.55
2019-05-13T05:27:04.583Z,11.70
2019-05-13T05:30:23.978Z,11.28
2019-05-13T05:33:12.729Z,10.28
2019-05-13T05:36:24.535Z,9.90
2019-05-13T05:39:12.362Z,10.48
2019-05-13T05:41:45.585Z,9.45
2019-05-13T05:44:17.779Z,9.68
2019-05-13T05:46:51.538Z,10.25
2019-05-13T05:49:23.756Z,10.03
2019-05-13T05:51:57.918Z,8.90
2019-05-13T05:54:31.759Z,8.63
2019-05-13T05:57:06.578Z,9.48
2019-05-13T05:59:37.902Z,9.00
2019-05-13T06:02:11.903Z,7.87
2019-05-13T06:04:43.099Z,7.65
2019-05-13T06:07:14.881Z,7.65
2019-05-13T06:09:44.667Z,7.10
2019-05-13T06:12:14.703Z,7.85
2019-05-13T06:14:45.216Z,7.20
2019-05-13T06:17:15.080Z,6.42
2019-05-13T06:19:45.295Z,6.40
2019-05-13T06:22:15.113Z,5.83
2019-05-13T06:24:45.847Z,6.30
2019-05-13T06:27:16.165Z,6.47
2019-05-13T06:29:49.255Z,5.58
2019-05-13T06:32:25.420Z,5.70
2019-05-13T06:34:52.598Z,5.85
2019-05-13T06:37:23.009Z,5.28
2019-05-13T06:39:52.755Z,5.60
2019-05-13T06:42:22.405Z,4.90
2019-05-13T06:44:52.178Z,5.20
2019-05-13T06:47:22.114Z,5.00
2019-05-13T06:49:51.933Z,4.45
2019-05-13T06:52:21.695Z,4.75
2019-05-13T06:54:52.140Z,4.67
2019-05-13T06:57:22.154Z,4.25
2019-05-13T06:59:52.559Z,4.15
2019-05-13T07:02:23.878Z,5.25
2019-05-13T07:04:53.605Z,4.70
2019-05-13T07:07:23.466Z,4.28
2019-05-13T07:09:53.021Z,4.37
2019-05-13T07:12:22.675Z,3.60
2019-05-13T07:14:52.395Z,3.52
2019-05-13T07:17:22.486Z,4.03
2019-05-13T07:19:52.302Z,4.12
2019-05-13T07:22:22.934Z,3.50
2019-05-13T07:24:53.950Z,3.58
2019-05-13T07:27:24.193Z,3.58
2019-05-13T07:29:55.694Z,3.50
2019-05-13T07:32:25.332Z,3.20
2019-05-13T07:34:55.050Z,3.25
2019-05-13T07:37:25.641Z,3.10
2019-05-13T07:39:55.735Z,3.20
2019-05-13T07:42:25.444Z,3.17
2019-05-13T07:44:55.213Z,3.60
2019-05-13T07:47:24.945Z,2.80
2019-05-13T07:49:54.683Z,3.08
2019-05-13T07:52:24.447Z,3.10
2019-05-13T07:54:54.053Z,2.87
2019-05-13T07:57:23.688Z,2.90
2019-05-13T07:59:53.439Z,2.85
2019-05-13T08:02:23.687Z,2.33
2019-05-13T08:04:53.392Z,2.60
2019-05-13T08:07:23.015Z,2.80
2019-05-13T08:09:55.652Z,2.30
2019-05-13T08:12:24.065Z,2.85
2019-05-13T08:14:53.792Z,2.45
2019-05-13T08:17:23.696Z,2.50
2019-05-13T08:19:53.411Z,2.83
2019-05-13T08:22:23.143Z,3.05
2019-05-13T08:24:54.378Z,2.58
2019-05-13T08:27:30.265Z,3.10
2019-05-13T08:29:55.918Z,2.72
2019-05-13T08:32:25.636Z,2.30
2019-05-13T08:35:01.746Z,2.95
2019-05-13T08:37:27.706Z,2.20
2019-05-13T08:39:57.424Z,2.10
2019-05-13T08:42:27.169Z,2.58
2019-05-13T08:44:56.963Z,2.00
2019-05-13T08:47:26.735Z,1.90
2019-05-13T08:50:03.819Z,1.90
2019-05-13T08:52:37.099Z,2.37
2019-05-13T08:55:08.211Z,2.75
2019-05-13T08:57:37.940Z,1.60
2019-05-13T09:00:18.506Z,2.08
2019-05-13T09:05:37.028Z,2.02
2019-05-13T09:08:07.179Z,1.90
2019-05-13T09:10:36.914Z,2.52
2019-05-13T09:13:07.739Z,1.90
2019-05-13T09:15:37.569Z,2.00
2019-05-13T09:18:11.941Z,2.25
2019-05-13T09:20:41.771Z,2.30
2019-05-13T09:23:11.559Z,1.60
2019-05-13T09:25:44.255Z,2.02
2019-05-13T09:28:14.019Z,1.95
2019-05-13T09:30:43.828Z,1.90
2019-05-13T09:33:13.622Z,1.32
2019-05-13T09:35:58.060Z,1.77
2019-05-13T09:38:26.521Z,2.08
2019-05-13T09:40:56.382Z,2.05
2019-05-13T09:43:27.785Z,2.27
2019-05-13T09:45:57.509Z,2.00
2019-05-13T09:48:27.217Z,2.20
2019-05-13T09:50:57.805Z,2.37
2019-05-13T09:53:41.672Z,2.05
2019-05-13T09:56:33.075Z,1.95
2019-05-13T09:59:08.088Z,2.52
2019-05-13T10:01:43.109Z,2.20
2019-05-13T10:04:12.946Z,2.25
2019-05-13T10:06:43.389Z,2.10
2019-05-13T10:09:13.263Z,2.42
2019-05-13T10:11:43.167Z,2.37
2019-05-13T10:14:13.017Z,2.30
2019-05-13T10:16:51.826Z,2.00
2019-05-13T10:19:24.707Z,2.00
2019-05-13T10:21:54.641Z,2.02
2019-05-13T10:24:25.184Z,2.67
2019-05-13T10:26:55.450Z,2.22
2019-05-13T10:29:31.076Z,2.67
2019-05-13T10:32:02.603Z,2.62
2019-05-13T10:34:32.585Z,2.70
2019-05-13T10:39:56.061Z,2.20
2019-05-13T10:42:27.279Z,2.30
2019-05-13T10:45:02.446Z,1.87
2019-05-13T10:47:33.369Z,1.98
2019-05-13T10:50:03.407Z,1.60
2019-05-13T10:52:34.500Z,1.82
2019-05-13T10:55:06.281Z,1.45
2019-05-13T10:57:36.254Z,1.90
2019-05-13T11:00:08.829Z,1.82
2019-05-13T11:02:38.750Z,1.80
2019-05-13T11:05:08.873Z,2.00
2019-05-13T11:07:41.625Z,2.15
2019-05-13T11:10:13.406Z,1.70
2019-05-13T11:12:43.566Z,1.62
2019-05-13T11:15:15.115Z,1.72
2019-05-13T11:17:46.332Z,1.60
2019-05-13T11:20:16.109Z,2.15
2019-05-13T11:22:45.950Z,1.80
2019-05-13T11:25:21.816Z,1.65
2019-05-13T11:28:22.221Z,1.77
2019-05-13T11:31:02.892Z,1.45
2019-05-13T11:36:46.330Z,1.72
2019-05-13T11:39:32.544Z,1.92
2019-05-13T11:44:56.091Z,2.42
2019-05-13T11:47:25.877Z,2.02
2019-05-13T11:49:55.682Z,2.00
2019-05-13T11:52:25.497Z,1.50
2019-05-13T11:54:56.789Z,1.80
2019-05-13T11:57:26.589Z,1.82
2019-05-13T11:59:56.486Z,1.87
2019-05-13T12:02:26.479Z,2.15
2019-05-13T12:04:56.786Z,1.50
2019-05-13T12:07:26.667Z,1.57
2019-05-13T12:09:58.182Z,1.50
2019-05-13T12:12:36.513Z,1.80
2019-05-13T12:15:28.827Z,1.72
2019-05-13T12:17:45.850Z,1.92
2019-05-13T12:23:23.382Z,1.80
2019-05-13T12:25:53.367Z,1.42
2019-05-13T12:31:36.087Z,1.60
2019-05-13T12:34:05.965Z,2.10
2019-05-13T12:36:36.135Z,1.82
2019-05-13T12:39:14.266Z,2.20
2019-05-13T12:41:44.658Z,2.15
2019-05-13T12:44:14.444Z,2.50
2019-05-13T12:49:50.390Z,2.02
2019-05-13T12:52:22.935Z,2.12
2019-05-13T12:54:52.873Z,2.25
2019-05-13T12:57:23.334Z,2.70
2019-05-13T12:59:53.164Z,2.62
2019-05-13T13:02:22.858Z,2.85
2019-05-13T13:05:12.096Z,2.80
2019-05-13T13:07:24.099Z,2.17
2019-05-13T13:09:54.153Z,3.20
2019-05-13T13:12:33.797Z,2.80
2019-05-13T13:14:55.271Z,2.80
2019-05-13T13:17:25.053Z,2.67
2019-05-13T13:20:03.794Z,2.70
2019-05-13T13:22:26.222Z,2.20
2019-05-13T13:24:57.583Z,2.33
2019-05-13T13:27:57.839Z,2.33
2019-05-13T13:30:03.096Z,2.60
2019-05-13T13:32:33.039Z,2.70
2019-05-13T13:35:03.681Z,2.05
2019-05-13T13:37:35.119Z,2.67
2019-05-13T13:40:06.592Z,2.50
2019-05-13T13:42:36.237Z,2.45
2019-05-13T13:45:07.723Z,2.17
2019-05-13T13:47:37.438Z,2.37
2019-05-13T13:50:08.356Z,2.42
2019-05-13T13:52:44.978Z,2.10
2019-05-13T13:55:15.971Z,2.37
2019-05-13T13:57:45.762Z,2.25
2019-05-13T14:00:47.436Z,2.37
2019-05-13T14:06:12.353Z,3.20
2019-05-13T14:08:41.595Z,3.17
2019-05-13T14:11:15.204Z,2.40
2019-05-13T14:13:44.980Z,2.60
2019-05-13T14:16:28.640Z,2.70
2019-05-13T14:18:46.304Z,2.80
2019-05-13T14:21:16.046Z,3.00
2019-05-13T14:23:45.702Z,2.77
2019-05-13T14:26:15.662Z,3.10
2019-05-13T14:28:47.289Z,3.22
2019-05-13T14:31:18.473Z,2.90
2019-05-13T14:33:51.950Z,2.98
2019-05-13T14:36:23.113Z,3.00
2019-05-13T14:38:53.141Z,2.77
2019-05-13T14:41:22.864Z,2.37
2019-05-13T14:43:53.403Z,2.98
2019-05-13T14:46:30.554Z,2.50
2019-05-13T14:48:54.809Z,2.77
2019-05-13T14:51:24.491Z,2.10
2019-05-13T14:53:54.404Z,2.22
2019-05-13T14:56:24.180Z,2.62
2019-05-13T14:58:53.923Z,2.10
2019-05-13T15:01:23.580Z,2.25
2019-05-13T15:03:53.464Z,1.82
2019-05-13T15:06:23.301Z,2.35
2019-05-13T15:08:53.167Z,2.25
2019-05-13T15:11:23.447Z,2.70
2019-05-13T15:13:53.336Z,2.27
2019-05-13T15:16:23.224Z,2.35
2019-05-13T15:19:01.592Z,2.33
2019-05-13T15:21:32.211Z,1.90
2019-05-13T15:24:12.389Z,2.22
2019-05-13T15:26:46.039Z,2.37
2019-05-13T15:29:41.820Z,2.00
2019-05-13T15:32:11.592Z,2.30
2019-05-13T15:34:42.543Z,2.75
2019-05-13T15:37:12.328Z,2.50
2019-05-13T15:39:45.823Z,2.20
2019-05-13T15:42:15.559Z,2.20
2019-05-13T15:44:45.333Z,2.15
2019-05-13T15:47:24.088Z,2.47
2019-05-13T15:49:48.883Z,2.10
2019-05-13T15:52:22.554Z,2.70
2019-05-13T15:54:52.200Z,2.50
2019-05-13T15:57:25.186Z,2.50
2019-05-13T16:00:02.056Z,2.70
2019-05-13T16:02:41.839Z,2.77
2019-05-13T16:05:13.469Z,2.67
2019-05-13T16:35:55.231Z,2.63
2019-05-13T16:38:46.248Z,3.30
2019-05-13T16:41:17.422Z,3.55
2019-05-13T16:44:35.728Z,2.92
2019-05-13T16:47:06.419Z,2.77
2019-05-13T16:49:36.297Z,3.02
2019-05-13T16:52:06.132Z,3.08
2019-05-13T16:54:36.882Z,3.25
2019-05-13T16:57:06.692Z,2.83
2019-05-13T16:59:42.008Z,3.05
2019-05-13T17:02:13.183Z,2.62
2019-05-13T17:04:44.558Z,2.70
2019-05-13T17:07:15.415Z,2.83
2019-05-13T17:09:45.255Z,2.85
2019-05-13T17:12:17.959Z,2.45
2019-05-13T17:14:57.161Z,2.30
2019-05-13T17:17:26.990Z,2.92
2019-05-13T17:19:58.655Z,3.22
2019-05-13T17:22:36.313Z,2.75
2019-05-13T17:25:07.879Z,2.83
2019-05-13T17:27:37.692Z,2.50
2019-05-13T17:30:12.469Z,2.50
2019-05-13T17:32:42.365Z,2.60
2019-05-13T17:35:12.474Z,2.75
2019-05-13T17:37:42.346Z,2.50
2019-05-13T17:40:12.346Z,2.30
2019-05-13T17:42:43.236Z,2.70
2019-05-13T17:45:13.499Z,2.62
2019-05-13T17:47:43.206Z,2.12
2019-05-13T17:50:14.964Z,2.67
2019-05-13T17:52:45.897Z,1.77
2019-05-13T17:55:17.277Z,2.42
2019-05-13T17:57:47.106Z,2.50
2019-05-13T18:00:17.092Z,2.37
2019-05-13T18:02:46.902Z,2.50
2019-05-13T18:05:17.008Z,2.00
2019-05-13T18:07:46.737Z,2.47
2019-05-13T18:10:16.747Z,2.22
2019-05-13T18:12:46.556Z,2.27
2019-05-13T18:15:16.493Z,1.95
2019-05-13T18:17:46.239Z,2.20
2019-05-13T18:20:17.582Z,2.20
2019-05-13T18:22:47.379Z,2.30
2019-05-13T18:25:17.243Z,2.22
2019-05-13T18:27:47.012Z,2.15
2019-05-13T18:30:18.349Z,2.33
2019-05-13T18:32:48.182Z,2.45
2019-05-13T18:35:18.680Z,2.27
2019-05-13T18:37:48.527Z,1.80
2019-05-13T18:40:18.590Z,2.12
2019-05-13T18:42:48.323Z,2.40
2019-05-13T18:45:18.275Z,2.30
2019-05-13T18:47:48.192Z,2.33
2019-05-13T18:50:18.224Z,2.33
2019-05-13T18:52:48.050Z,2.33
2019-05-13T18:55:17.856Z,2.35
2019-05-13T18:57:47.608Z,2.00
2019-05-13T19:00:17.693Z,2.30
2019-05-13T19:02:47.698Z,2.22
2019-05-13T19:05:17.551Z,2.22
2019-05-13T19:07:47.354Z,2.35
2019-05-13T19:10:17.180Z,2.42
2019-05-13T19:12:46.981Z,2.15
2019-05-13T19:15:16.927Z,2.52
2019-05-13T19:17:46.658Z,1.90
2019-05-13T19:20:37.262Z,1.95
2019-05-13T19:25:55.745Z,2.45
2019-05-13T19:28:25.834Z,2.12
2019-05-13T19:30:56.859Z,2.55
2019-05-13T19:33:30.116Z,2.75
2019-05-13T19:36:03.296Z,2.25
2019-05-13T19:38:33.303Z,2.10
2019-05-13T19:41:03.157Z,2.00
2019-05-13T19:43:33.039Z,2.50
2019-05-13T19:46:03.001Z,2.52
2019-05-13T19:48:32.995Z,2.40
2019-05-13T19:51:02.973Z,2.40
2019-05-13T19:53:33.762Z,2.40
2019-05-13T19:56:03.666Z,2.75
2019-05-13T19:58:33.588Z,2.25
2019-05-13T20:01:03.557Z,2.30
2019-05-13T20:03:34.239Z,2.10
2019-05-13T20:06:04.763Z,2.30
2019-05-13T20:08:34.638Z,2.30
2019-05-13T20:11:07.673Z,1.90
2019-05-13T20:27:35.627Z,2.58
2019-05-13T20:30:11.770Z,2.52
2019-05-13T20:32:41.657Z,2.47
2019-05-13T21:10:59.415Z,2.47
2019-05-13T21:13:32.825Z,2.30
2019-05-13T21:16:11.246Z,2.85
2019-05-13T21:19:03.702Z,2.52
2019-05-13T21:27:45.310Z,2.60
2019-05-13T21:36:06.182Z,2.80
2019-05-13T21:46:48.683Z,2.60
2019-05-13T21:58:22.421Z,3.40
2019-05-13T22:01:35.024Z,3.30
2019-05-13T22:04:09.353Z,2.98
2019-05-13T22:07:09.287Z,3.00
2019-05-13T22:12:41.272Z,3.37
2019-05-13T22:15:10.950Z,2.95
2019-05-13T22:18:41.734Z,3.05
2019-05-13T22:24:51.123Z,3.10
